Lovejoy, Illinois
Current Conditions -  °F | °C
As of 3:53 AM on Friday 19 Dec 2014 (Local Time) from KCPS Reporting Station
Overcast Overcast  
Wind Chill: 33°   Ceiling: 3000
Heat Index: 33°   Visibility: 9mi
Dew Point: 28°   Wind: 3mph
Humidity: 82%   Direction: 50°NE
Pressure: 30.29"   Gusts: NA
Location:  38.63°N, 90.15°W
Report Text: KCPS 190953Z AUTO 05003KT 9SM OVC030 01/M02 A3029 RMK AO2 SLP261 T00061022 TSNO
Loading
Personal Weather Stations






























Interactive Weather Map New forecast layout! Learn more

10-Day Weather Forecast

Advertisements
Track Severe Weather on mobile